logo
Search for airport 
image banner adimage banner adimage banner ad
image banner ad

SGSOFI - Sofia

Located in Fortuna, Paraguay

ICAO - , IATA -

Data provided by Airmate  

General information

Coordinates: S22°42'46" W55°41'57"
Elevation is 1234 feet MSL.
Magnetic variation is -17° East
View others Airports in Amambay Department

Operational data

Special qualification required
Current time UTC:
Current local time:
Weather at : SBPP - Ponta Porã / Ponta Porã ( 18 km )
METAR: SBPP 222100Z 27002KT CAVOK 34/17 Q1011
TAF: TAF SBPP 221500Z 2218/2318 33010KT 9999 SCT020 FEW025TCU TN24/2309Z TX35/2318Z BECMG 2219/2221 12004KT FEW020 BECMG 2300/2302 03005KT CAVOK BECMG 2312/2314 02015KT BECMG 2315/2317 33010KT SCT020 FEW025TCU RMK PHH
View NOTAMs / SUP AIP / TFR affecting this airport [VIEW]
Communications frequencies: [VIEW]

Runways:

RWY identifierQFULength (ft)Width (ft)SurfaceLDA (ft)
0421°428286GRAS
22201°428286GRAS

Airport contact information

Address: Fortuna Paraguay

Satellite view of SGSOFI